createdAt,value
2022-11-26T00:02:01.065Z,20.77
2022-11-26T00:04:29.388Z,13.20
2022-11-26T00:06:59.043Z,15.57
2022-11-26T00:09:27.448Z,13.53
2022-11-26T00:11:55.863Z,14.30
2022-11-26T00:14:24.120Z,13.50
2022-11-26T00:16:52.719Z,13.60
2022-11-26T00:19:21.109Z,12.63
2022-11-26T00:21:49.454Z,12.07
2022-11-26T00:24:27.318Z,10.43
2022-11-26T00:26:58.151Z,9.87
2022-11-26T00:29:26.873Z,16.80
2022-11-26T00:31:55.271Z,8.40
2022-11-26T00:34:23.616Z,10.10
2022-11-26T00:36:52.015Z,11.33
2022-11-26T00:39:24.283Z,10.50
2022-11-26T00:41:53.635Z,10.83
2022-11-26T00:44:23.925Z,13.47
2022-11-26T00:46:52.406Z,14.13
2022-11-26T00:49:21.428Z,13.80
2022-11-26T00:51:49.847Z,12.13
2022-11-26T00:54:19.730Z,14.80
2022-11-26T00:56:50.473Z,12.10
2022-11-26T00:59:23.065Z,11.47
2022-11-26T01:01:51.555Z,10.57
2022-11-26T01:04:19.903Z,10.50
2022-11-26T01:06:48.249Z,7.93
2022-11-26T01:09:19.423Z,9.80
2022-11-26T01:11:53.772Z,12.33
2022-11-26T01:14:23.817Z,10.77
2022-11-26T01:16:52.525Z,14.83
2022-11-26T01:19:20.899Z,10.53
2022-11-26T01:21:49.450Z,11.07
2022-11-26T01:24:17.836Z,13.23
2022-11-26T01:26:46.290Z,10.90
2022-11-26T01:29:18.446Z,11.57
2022-11-26T01:31:46.985Z,9.83
2022-11-26T01:34:15.409Z,12.10
2022-11-26T01:36:44.414Z,12.53
2022-11-26T01:39:16.001Z,11.53
2022-11-26T01:41:46.614Z,12.70
2022-11-26T01:44:19.972Z,13.90
2022-11-26T01:46:49.940Z,12.77
2022-11-26T01:49:21.429Z,13.87
2022-11-26T01:51:52.221Z,10.10
2022-11-26T01:54:21.667Z,12.47
2022-11-26T01:56:52.076Z,12.57
2022-11-26T01:59:26.627Z,13.13
2022-11-26T02:01:56.800Z,12.37
2022-11-26T02:04:28.471Z,13.30
2022-11-26T02:06:57.774Z,12.93
2022-11-26T02:09:27.542Z,16.80
2022-11-26T02:11:56.722Z,17.07
2022-11-26T02:14:27.839Z,11.53
2022-11-26T02:17:03.984Z,14.27
2022-11-26T02:20:15.477Z,12.13
2022-11-26T02:23:04.590Z,12.77
2022-11-26T02:25:54.605Z,13.63
2022-11-26T02:28:40.194Z,14.10
2022-11-26T02:31:13.008Z,12.97
2022-11-26T02:33:46.438Z,10.70
2022-11-26T02:36:18.493Z,15.47
2022-11-26T02:38:47.011Z,12.57
2022-11-26T02:41:15.265Z,9.57
2022-11-26T02:43:43.827Z,12.47
2022-11-26T02:46:17.344Z,11.43
2022-11-26T02:48:48.080Z,17.33
2022-11-26T02:51:19.382Z,16.73
2022-11-26T02:53:48.458Z,16.40
2022-11-26T02:56:18.583Z,13.37
2022-11-26T02:58:46.942Z,12.67
2022-11-26T03:01:20.783Z,10.87
2022-11-26T03:03:52.754Z,11.03
2022-11-26T03:06:21.905Z,14.33
2022-11-26T03:08:50.225Z,12.37
2022-11-26T03:11:18.594Z,10.80
2022-11-26T03:13:47.006Z,10.83
2022-11-26T03:16:16.748Z,12.17
2022-11-26T03:18:45.207Z,13.17
2022-11-26T03:21:13.527Z,11.43
2022-11-26T03:26:50.941Z,15.57
2022-11-26T03:29:19.362Z,11.30
2022-11-26T03:31:49.134Z,15.73
2022-11-26T03:34:17.451Z,13.07
2022-11-26T03:36:45.751Z,13.33
2022-11-26T03:39:14.113Z,12.27
2022-11-26T03:41:44.082Z,11.57
2022-11-26T03:44:13.320Z,15.43
2022-11-26T03:46:41.633Z,12.47
2022-11-26T03:49:11.337Z,14.37
2022-11-26T03:51:39.645Z,13.37
2022-11-26T03:54:08.148Z,12.70
2022-11-26T03:56:36.466Z,11.67
2022-11-26T03:59:04.882Z,10.73
2022-11-26T04:01:33.397Z,9.87
2022-11-26T04:04:01.745Z,11.90
2022-11-26T04:06:31.402Z,11.83
2022-11-26T04:08:59.740Z,11.40
2022-11-26T04:11:28.109Z,12.47
2022-11-26T04:13:56.567Z,11.53
2022-11-26T04:16:25.025Z,12.07
2022-11-26T04:18:53.518Z,12.50
2022-11-26T04:21:21.864Z,10.63
2022-11-26T04:23:51.533Z,11.90
2022-11-26T04:26:19.928Z,15.00
2022-11-26T04:28:48.899Z,11.20
2022-11-26T04:31:17.437Z,12.37
2022-11-26T04:33:45.773Z,11.27
2022-11-26T04:36:14.300Z,9.83
2022-11-26T04:38:42.585Z,16.40
2022-11-26T04:41:12.287Z,9.70
2022-11-26T04:43:40.738Z,13.13
2022-11-26T04:46:09.368Z,13.87
2022-11-26T04:48:37.707Z,14.00
2022-11-26T04:51:06.359Z,10.83
2022-11-26T04:53:34.673Z,12.20
2022-11-26T04:56:03.247Z,12.27
2022-11-26T04:58:33.102Z,8.67
2022-11-26T05:01:01.574Z,13.27
2022-11-26T05:03:29.953Z,12.67
2022-11-26T05:05:58.643Z,16.03
2022-11-26T05:08:30.018Z,13.13
2022-11-26T05:11:01.187Z,12.27
2022-11-26T05:13:29.857Z,14.33
2022-11-26T05:15:59.541Z,10.93
2022-11-26T05:18:27.855Z,13.97
2022-11-26T05:20:56.582Z,12.07
2022-11-26T05:23:25.146Z,13.20
2022-11-26T05:25:53.881Z,14.17
2022-11-26T05:28:22.250Z,13.13
2022-11-26T05:30:50.825Z,13.00
2022-11-26T05:33:21.105Z,12.73
2022-11-26T05:35:49.551Z,11.47
2022-11-26T05:38:17.921Z,14.37
2022-11-26T05:40:46.380Z,15.07
2022-11-26T05:43:14.973Z,12.03
2022-11-26T05:45:43.467Z,15.03
2022-11-26T05:48:11.869Z,13.03
2022-11-26T05:50:41.817Z,8.60
2022-11-26T05:53:10.402Z,18.33
2022-11-26T05:55:39.379Z,10.80
2022-11-26T05:58:09.704Z,14.43
2022-11-26T06:00:38.026Z,13.73
2022-11-26T06:03:06.525Z,12.67
2022-11-26T06:05:34.929Z,10.67
2022-11-26T06:08:05.027Z,10.87
2022-11-26T06:10:33.388Z,14.47
2022-11-26T06:13:01.833Z,12.07
2022-11-26T06:15:30.427Z,18.83
2022-11-26T06:17:58.781Z,17.07
2022-11-26T06:20:27.135Z,15.23
2022-11-26T06:22:55.559Z,12.63
2022-11-26T06:25:25.426Z,13.33
2022-11-26T06:27:53.884Z,12.17
2022-11-26T06:30:22.450Z,15.00
2022-11-26T06:32:50.983Z,11.50
2022-11-26T06:35:19.361Z,15.43
2022-11-26T06:37:47.804Z,10.63
2022-11-26T06:40:18.678Z,15.10
2022-11-26T06:42:50.987Z,15.43
2022-11-26T06:45:19.645Z,12.03
2022-11-26T06:47:48.527Z,18.27
2022-11-26T06:50:18.042Z,13.87
2022-11-26T06:52:46.476Z,17.67
2022-11-26T06:55:14.759Z,12.63
2022-11-26T06:57:43.097Z,13.50
2022-11-26T07:00:14.197Z,14.53
2022-11-26T07:02:43.293Z,12.73
2022-11-26T07:05:11.715Z,15.73
2022-11-26T07:07:40.805Z,12.27
2022-11-26T07:10:09.694Z,16.83
2022-11-26T07:12:38.278Z,15.43
2022-11-26T07:15:07.406Z,16.27
2022-11-26T07:17:37.207Z,20.90
2022-11-26T07:20:06.798Z,15.80
2022-11-26T07:22:35.574Z,14.47
2022-11-26T07:25:08.079Z,19.57
2022-11-26T07:27:39.279Z,19.23
2022-11-26T07:30:10.086Z,15.77
2022-11-26T07:32:40.049Z,21.83
2022-11-26T07:35:08.905Z,13.43
2022-11-26T07:37:37.379Z,14.67
2022-11-26T07:40:07.381Z,18.63
2022-11-26T07:42:35.637Z,16.30
2022-11-26T07:45:04.830Z,19.53
2022-11-26T07:47:33.127Z,16.10
2022-11-26T07:50:03.230Z,21.03
2022-11-26T07:52:31.578Z,12.77
2022-11-26T07:54:59.880Z,17.70
2022-11-26T07:57:28.323Z,17.07
2022-11-26T07:59:56.787Z,19.87
2022-11-26T08:02:25.231Z,13.57
2022-11-26T08:04:53.598Z,14.50
2022-11-26T08:07:29.063Z,13.30
2022-11-26T08:09:57.956Z,16.77
2022-11-26T08:12:26.785Z,15.77
2022-11-26T08:14:55.203Z,15.83
2022-11-26T08:17:23.725Z,17.13
2022-11-26T08:19:52.030Z,10.70
2022-11-26T08:22:20.613Z,15.20
2022-11-26T08:24:50.504Z,15.27
2022-11-26T08:27:18.946Z,13.97
2022-11-26T08:29:47.688Z,13.73
2022-11-26T08:32:16.412Z,23.67
2022-11-26T08:34:44.764Z,13.43
2022-11-26T08:37:13.125Z,15.83
2022-11-26T08:39:41.936Z,13.93
2022-11-26T08:42:13.949Z,15.27
2022-11-26T08:44:45.393Z,13.47
2022-11-26T08:47:17.935Z,12.13
2022-11-26T08:49:48.591Z,14.40
2022-11-26T08:52:19.043Z,14.77
2022-11-26T08:54:47.691Z,11.00
2022-11-26T08:57:17.557Z,11.27
2022-11-26T08:59:45.826Z,16.97
2022-11-26T09:02:18.630Z,17.57
2022-11-26T09:04:47.368Z,16.63
2022-11-26T09:07:16.191Z,13.33
2022-11-26T09:09:44.834Z,13.97
2022-11-26T09:12:14.689Z,14.63
2022-11-26T09:14:45.440Z,17.03
2022-11-26T09:17:14.965Z,12.37
2022-11-26T09:19:43.584Z,16.57
2022-11-26T09:22:12.364Z,15.37
2022-11-26T09:24:41.362Z,13.67
2022-11-26T09:27:11.434Z,15.33
2022-11-26T09:29:40.093Z,15.30
2022-11-26T09:32:29.731Z,10.67
2022-11-26T09:34:58.556Z,12.90
2022-11-26T09:37:26.917Z,10.93
2022-11-26T09:39:55.239Z,17.07
2022-11-26T09:42:36.155Z,13.13
2022-11-26T09:45:11.909Z,15.93
2022-11-26T09:47:42.975Z,15.67
2022-11-26T09:50:22.644Z,13.93
2022-11-26T09:52:54.786Z,12.43
2022-11-26T09:55:25.776Z,13.73
2022-11-26T09:58:00.450Z,13.63
2022-11-26T10:00:31.669Z,12.80
2022-11-26T10:03:01.530Z,12.20
2022-11-26T10:05:40.715Z,11.57
2022-11-26T10:08:16.368Z,12.10
2022-11-26T10:10:49.542Z,9.27
2022-11-26T10:13:22.367Z,12.73
2022-11-26T10:15:59.847Z,12.87
2022-11-26T10:18:38.734Z,14.13
2022-11-26T10:21:27.213Z,11.53
2022-11-26T10:24:04.782Z,10.53
2022-11-26T10:26:36.276Z,12.60
2022-11-26T10:29:21.855Z,12.50
2022-11-26T10:31:52.497Z,12.00
2022-11-26T10:34:29.284Z,11.90
2022-11-26T10:36:58.917Z,14.30
2022-11-26T10:39:28.799Z,15.97
2022-11-26T10:41:57.667Z,14.07
2022-11-26T10:44:37.143Z,14.57
2022-11-26T10:47:27.776Z,12.27
2022-11-26T10:50:45.375Z,11.63
2022-11-26T10:53:06.957Z,14.53
2022-11-26T10:55:39.310Z,12.07
2022-11-26T10:58:13.951Z,17.07
2022-11-26T11:00:44.941Z,13.20
2022-11-26T11:03:17.882Z,17.10
2022-11-26T11:05:47.693Z,13.00
2022-11-26T11:08:16.866Z,15.33
2022-11-26T11:10:54.941Z,14.80
2022-11-26T11:13:24.787Z,13.33
2022-11-26T11:16:01.695Z,15.63
2022-11-26T11:18:30.997Z,19.40
2022-11-26T11:21:03.161Z,10.30
2022-11-26T11:24:00.213Z,13.70
2022-11-26T11:26:23.584Z,12.63
2022-11-26T11:28:53.964Z,9.83
2022-11-26T11:31:23.940Z,8.60
2022-11-26T11:33:54.036Z,15.60
2022-11-26T11:36:28.595Z,8.90
2022-11-26T11:38:58.425Z,9.83
2022-11-26T11:41:30.318Z,11.50
2022-11-26T11:44:06.152Z,12.50
2022-11-26T11:47:07.619Z,17.13
2022-11-26T11:49:59.969Z,10.43
2022-11-26T11:52:36.762Z,8.20
2022-11-26T11:55:14.939Z,11.57
2022-11-26T11:58:00.256Z,10.33
2022-11-26T12:00:35.601Z,13.50
2022-11-26T12:03:32.056Z,12.50
2022-11-26T12:06:09.557Z,11.27
2022-11-26T12:08:52.153Z,10.70
2022-11-26T12:11:31.570Z,12.83
2022-11-26T12:14:02.232Z,13.03
2022-11-26T12:16:36.369Z,10.97
2022-11-26T12:19:08.346Z,10.73
2022-11-26T12:21:39.923Z,10.80
2022-11-26T12:24:14.687Z,13.17
2022-11-26T12:26:48.073Z,13.87
2022-11-26T12:29:23.687Z,12.57
2022-11-26T12:31:55.388Z,12.53
2022-11-26T12:34:26.381Z,14.13
2022-11-26T12:36:57.351Z,17.90
2022-11-26T12:39:34.223Z,13.03
2022-11-26T12:42:05.986Z,15.13
2022-11-26T12:44:38.067Z,11.97
2022-11-26T12:47:12.694Z,11.53
2022-11-26T12:49:48.378Z,15.87
2022-11-26T12:52:29.458Z,13.60
2022-11-26T12:55:05.241Z,14.63
2022-11-26T12:57:36.917Z,11.63
2022-11-26T13:00:11.365Z,10.03
2022-11-26T13:02:42.452Z,12.73
2022-11-26T13:05:16.650Z,11.20
2022-11-26T13:08:00.177Z,14.93
2022-11-26T13:10:39.339Z,13.90
2022-11-26T13:13:16.174Z,16.37
2022-11-26T13:15:48.138Z,12.63
2022-11-26T13:18:29.274Z,12.77
2022-11-26T13:21:15.219Z,15.50
2022-11-26T13:23:59.127Z,10.50
2022-11-26T13:26:39.418Z,10.17
2022-11-26T13:29:33.357Z,13.43
2022-11-26T13:32:13.687Z,10.70
2022-11-26T13:34:59.731Z,14.63
2022-11-26T13:37:45.747Z,10.17
2022-11-26T13:40:44.647Z,15.07
2022-11-26T13:43:37.684Z,12.30
2022-11-26T13:46:10.363Z,11.33
2022-11-26T13:48:44.903Z,12.90
2022-11-26T13:51:19.664Z,11.10
2022-11-26T13:53:50.957Z,14.53
2022-11-26T13:56:22.088Z,12.13
2022-11-26T13:58:54.733Z,12.77
2022-11-26T14:01:28.371Z,13.27
2022-11-26T14:03:57.653Z,9.13
2022-11-26T14:06:27.965Z,11.53
2022-11-26T14:08:57.020Z,13.57
2022-11-26T14:11:57.126Z,10.27
2022-11-26T14:14:35.228Z,12.40
2022-11-26T14:17:18.709Z,9.97
2022-11-26T14:20:09.232Z,11.77
2022-11-26T14:22:38.267Z,10.67
2022-11-26T14:25:13.997Z,7.00
2022-11-26T14:27:53.313Z,8.40
2022-11-26T14:30:25.592Z,11.53
2022-11-26T14:33:03.926Z,7.77
2022-11-26T14:35:34.876Z,11.53
2022-11-26T14:38:06.255Z,13.23
2022-11-26T14:40:37.381Z,10.47
2022-11-26T14:43:31.623Z,10.50
2022-11-26T14:46:06.988Z,9.43
2022-11-26T14:48:37.069Z,11.47
2022-11-26T14:51:08.622Z,9.77
2022-11-26T14:53:48.089Z,10.03
2022-11-26T14:56:18.083Z,12.07
2022-11-26T14:58:48.370Z,12.40
2022-11-26T15:01:22.801Z,11.23
2022-11-26T15:03:56.131Z,10.97
2022-11-26T15:06:27.448Z,10.40
2022-11-26T15:09:07.115Z,10.70
2022-11-26T15:11:37.785Z,11.27
2022-11-26T15:14:06.166Z,15.13
2022-11-26T15:16:38.110Z,12.13
2022-11-26T15:19:07.816Z,13.43
2022-11-26T15:21:36.665Z,10.63
2022-11-26T15:24:08.987Z,16.47
2022-11-26T15:26:37.746Z,19.97
2022-11-26T15:29:27.873Z,13.43
2022-11-26T15:31:57.648Z,10.37
2022-11-26T15:34:26.762Z,14.83
2022-11-26T15:36:55.118Z,13.03
2022-11-26T15:39:29.102Z,16.90
2022-11-26T15:42:02.464Z,13.43
2022-11-26T15:44:34.596Z,17.90
2022-11-26T15:47:07.791Z,13.37
2022-11-26T15:49:38.890Z,15.20
2022-11-26T15:52:09.442Z,9.60
2022-11-26T15:55:04.529Z,16.93
2022-11-26T15:57:30.617Z,12.43
2022-11-26T16:00:01.072Z,10.93
2022-11-26T16:02:32.042Z,13.20
2022-11-26T16:05:00.960Z,16.27
2022-11-26T16:07:30.799Z,13.93
2022-11-26T16:10:22.478Z,14.37
2022-11-26T16:13:06.983Z,12.17
2022-11-26T16:15:35.923Z,16.13
2022-11-26T16:18:15.317Z,19.30
2022-11-26T16:20:43.774Z,17.10
2022-11-26T16:23:20.484Z,11.87
2022-11-26T16:26:10.550Z,15.63
2022-11-26T16:28:39.090Z,12.37
2022-11-26T16:31:08.065Z,12.53
2022-11-26T16:33:37.902Z,13.67
2022-11-26T16:36:21.765Z,20.70
2022-11-26T16:38:50.822Z,12.00
2022-11-26T16:41:22.959Z,15.87
2022-11-26T16:43:51.617Z,15.57
2022-11-26T16:46:23.170Z,13.73
2022-11-26T16:48:53.529Z,20.40
2022-11-26T16:51:22.588Z,18.13
2022-11-26T16:53:51.715Z,18.73
2022-11-26T16:56:23.678Z,17.00
2022-11-26T16:58:52.818Z,20.97
2022-11-26T17:01:21.619Z,21.60
2022-11-26T17:03:50.013Z,19.50
2022-11-26T17:06:24.828Z,19.93
2022-11-26T17:08:54.512Z,22.97
2022-11-26T17:11:23.446Z,19.47
2022-11-26T17:13:51.703Z,21.87
2022-11-26T17:16:21.907Z,27.10
2022-11-26T17:18:50.565Z,28.00
2022-11-26T17:21:20.341Z,22.60
2022-11-26T17:23:49.062Z,21.67
2022-11-26T17:26:20.016Z,22.47
2022-11-26T17:28:48.709Z,19.17
2022-11-26T17:31:17.769Z,24.27
2022-11-26T17:33:46.204Z,21.40
2022-11-26T17:36:17.127Z,21.70
2022-11-26T17:38:47.796Z,23.87
2022-11-26T17:41:16.975Z,22.90
2022-11-26T17:43:46.087Z,21.83
2022-11-26T17:46:17.206Z,21.17
2022-11-26T17:48:46.018Z,29.97
2022-11-26T17:51:14.993Z,33.13
2022-11-26T17:53:44.086Z,33.40
2022-11-26T17:56:19.114Z,34.63
2022-11-26T17:58:48.097Z,32.50
2022-11-26T18:01:17.240Z,31.47
2022-11-26T18:03:46.372Z,26.77
2022-11-26T18:06:16.675Z,32.73
2022-11-26T18:08:45.616Z,29.57
2022-11-26T18:11:15.407Z,30.17
2022-11-26T18:13:45.664Z,30.87
2022-11-26T18:16:14.145Z,28.27
2022-11-26T18:18:42.597Z,29.00
2022-11-26T18:21:11.749Z,29.70
2022-11-26T18:23:41.981Z,27.63
2022-11-26T18:26:17.668Z,27.10
2022-11-26T18:28:47.337Z,27.83
2022-11-26T18:31:15.667Z,25.53
2022-11-26T18:33:44.027Z,25.80
2022-11-26T18:36:12.965Z,28.23
2022-11-26T18:38:41.276Z,24.33
2022-11-26T18:41:09.608Z,24.43
2022-11-26T18:43:38.803Z,23.77
2022-11-26T18:46:11.710Z,31.50
2022-11-26T18:48:40.917Z,31.93
2022-11-26T18:51:09.728Z,29.87
2022-11-26T18:53:38.210Z,27.00
2022-11-26T18:56:08.989Z,25.83
2022-11-26T18:58:37.441Z,29.00
2022-11-26T19:01:14.369Z,27.63
2022-11-26T19:03:44.323Z,27.47
2022-11-26T19:06:17.198Z,27.10
2022-11-26T19:08:46.327Z,29.60
2022-11-26T19:11:16.700Z,28.43
2022-11-26T19:13:45.544Z,28.03
2022-11-26T19:16:17.851Z,28.43
2022-11-26T19:18:47.305Z,27.67
2022-11-26T19:21:18.368Z,25.20
2022-11-26T19:23:47.016Z,55.07
2022-11-26T19:26:15.906Z,36.53
2022-11-26T19:28:44.623Z,31.87
2022-11-26T19:31:27.421Z,34.53
2022-11-26T19:33:57.881Z,33.00
2022-11-26T19:36:27.612Z,33.80
2022-11-26T19:38:56.713Z,39.10
2022-11-26T19:41:26.246Z,35.93
2022-11-26T19:43:55.400Z,36.70
2022-11-26T19:46:26.132Z,39.07
2022-11-26T19:48:55.468Z,37.30
2022-11-26T19:51:26.242Z,35.73
2022-11-26T19:53:56.298Z,35.93
2022-11-26T19:56:26.550Z,29.83
2022-11-26T19:58:57.724Z,32.83
2022-11-26T20:01:30.570Z,40.87
2022-11-26T20:03:59.457Z,45.80
2022-11-26T20:06:29.149Z,62.53
2022-11-26T20:08:59.181Z,119.03
2022-11-26T20:11:28.532Z,107.77
2022-11-26T20:13:57.667Z,132.57
2022-11-26T20:16:29.031Z,143.80
2022-11-26T20:18:58.175Z,164.27
2022-11-26T20:21:29.113Z,145.17
2022-11-26T20:23:59.830Z,198.87
2022-11-26T20:26:29.996Z,176.43
2022-11-26T20:29:01.839Z,231.73
2022-11-26T20:31:32.064Z,177.97
2022-11-26T20:34:02.590Z,169.60
2022-11-26T20:36:31.618Z,185.80
2022-11-26T20:39:01.816Z,166.57
2022-11-26T20:41:31.040Z,236.73
2022-11-26T20:43:59.931Z,176.53
2022-11-26T20:46:29.129Z,117.20
2022-11-26T20:48:58.910Z,148.80
2022-11-26T20:51:27.321Z,113.47
2022-11-26T20:53:59.089Z,114.80
2022-11-26T20:56:27.943Z,111.93
2022-11-26T20:58:56.386Z,103.83
2022-11-26T21:01:26.613Z,92.43
2022-11-26T21:03:55.667Z,92.93
2022-11-26T21:06:30.166Z,98.47
2022-11-26T21:09:01.206Z,95.20
2022-11-26T21:11:30.595Z,75.17
2022-11-26T21:13:59.900Z,56.23
2022-11-26T21:16:29.444Z,66.20
2022-11-26T21:18:58.005Z,92.70
2022-11-26T21:21:28.627Z,56.63
2022-11-26T21:23:58.183Z,65.63
2022-11-26T21:26:27.310Z,104.83
2022-11-26T21:28:57.614Z,90.10
2022-11-26T21:31:26.605Z,99.23
2022-11-26T21:33:56.302Z,89.70
2022-11-26T21:36:25.434Z,74.30
2022-11-26T21:38:55.401Z,81.27
2022-11-26T21:41:24.537Z,66.23
2022-11-26T21:43:53.281Z,72.13
2022-11-26T21:46:23.717Z,85.10
2022-11-26T21:48:53.010Z,64.23
2022-11-26T21:51:21.803Z,48.67
2022-11-26T21:53:50.287Z,54.90
2022-11-26T21:56:21.986Z,51.77
2022-11-26T21:58:50.982Z,41.37
2022-11-26T22:01:21.063Z,38.20
2022-11-26T22:03:50.949Z,54.57
2022-11-26T22:06:20.464Z,55.27
2022-11-26T22:08:49.324Z,54.73
2022-11-26T22:11:21.153Z,67.43
2022-11-26T22:13:49.872Z,54.57
2022-11-26T22:16:20.666Z,62.73
2022-11-26T22:18:49.453Z,41.23
2022-11-26T22:21:19.678Z,76.70
2022-11-26T22:23:48.618Z,36.93
2022-11-26T22:26:17.051Z,43.60
2022-11-26T22:28:46.854Z,43.17
2022-11-26T22:31:16.795Z,60.33
2022-11-26T22:33:45.211Z,48.90
2022-11-26T22:36:13.756Z,33.80
2022-11-26T22:38:43.111Z,27.87
2022-11-26T22:41:13.410Z,23.13
2022-11-26T22:43:42.864Z,75.20
2022-11-26T22:46:13.994Z,53.93
2022-11-26T22:48:43.029Z,67.93
2022-11-26T22:51:11.899Z,58.57
2022-11-26T22:53:40.387Z,51.90
2022-11-26T22:56:09.185Z,52.20
2022-11-26T22:58:37.531Z,44.17
2022-11-26T23:01:07.789Z,45.10
2022-11-26T23:03:38.758Z,60.43
2022-11-26T23:06:09.112Z,49.90
2022-11-26T23:08:38.461Z,125.13
2022-11-26T23:11:17.013Z,174.53
2022-11-26T23:13:46.607Z,112.93
2022-11-26T23:16:15.682Z,108.07
2022-11-26T23:18:45.699Z,74.93
2022-11-26T23:21:17.097Z,55.27
2022-11-26T23:23:46.465Z,105.00
2022-11-26T23:26:18.436Z,89.30
2022-11-26T23:28:49.144Z,84.43
2022-11-26T23:31:19.328Z,76.43
2022-11-26T23:33:51.941Z,74.40
2022-11-26T23:36:20.650Z,38.77
2022-11-26T23:38:49.095Z,65.13
2022-11-26T23:41:18.673Z,78.57
2022-11-26T23:43:47.240Z,74.07
2022-11-26T23:46:17.386Z,43.13
2022-11-26T23:48:46.063Z,81.20
2022-11-26T23:51:21.396Z,51.27
2022-11-26T23:53:50.924Z,74.37
2022-11-26T23:56:22.598Z,96.50
2022-11-26T23:58:51.134Z,70.63
